Aviation Digital Data Service (ADDS)

Output produced by METARs form (0159 UTC 06 December 2020)
found at http://aviationweather.gov/metar/data/
 
METAR text: KPGV 060155Z AUTO 00000KT 10SM CLR 07/01 A3002 RMK AO2
Conditions at: KPGV (PITT GREENVILLE , NC, US) observed 0155 UTC 06 December 2020
Temperature: 7.0°C (45°F)
Dewpoint: 1.0°C (34°F) [RH = 66%]
Pressure (altimeter): 30.02 inches Hg (1016.7 mb)
Winds: calm
Visibility: 10 or more miles (16+ km)
Ceiling: at least 12,000 feet AGL
Clouds: sky clear below 12,000 feet AGL
Weather: automated observation with no human augmentation;
there may or may not be significant weather present at this time

METAR text: KPGV 060135Z AUTO 00000KT 10SM CLR 07/01 A3002 RMK AO2
Conditions at: KPGV (PITT GREENVILLE , NC, US) observed 0135 UTC 06 December 2020
Temperature: 7.0°C (45°F)
Dewpoint: 1.0°C (34°F) [RH = 66%]
Pressure (altimeter): 30.02 inches Hg (1016.7 mb)
Winds: calm
Visibility: 10 or more miles (16+ km)
Ceiling: at least 12,000 feet AGL
Clouds: sky clear below 12,000 feet AGL
Weather: automated observation with no human augmentation;
there may or may not be significant weather present at this time

METAR text: KPGV 060115Z AUTO 00000KT 10SM CLR 08/00 A3001 RMK AO2
Conditions at: KPGV (PITT GREENVILLE , NC, US) observed 0115 UTC 06 December 2020
Temperature: 8.0°C (46°F)
Dewpoint: 0.0°C (32°F) [RH = 57%]
Pressure (altimeter): 30.01 inches Hg (1016.3 mb)
Winds: calm
Visibility: 10 or more miles (16+ km)
Ceiling: at least 12,000 feet AGL
Clouds: sky clear below 12,000 feet AGL
Weather: automated observation with no human augmentation;
there may or may not be significant weather present at this time

METAR text: KPGV 060055Z AUTO 32003KT 10SM CLR 08/01 A3001 RMK AO2
Conditions at: KPGV (PITT GREENVILLE , NC, US) observed 0055 UTC 06 December 2020
Temperature: 8.0°C (46°F)
Dewpoint: 1.0°C (34°F) [RH = 61%]
Pressure (altimeter): 30.01 inches Hg (1016.3 mb)
Winds: from the NW (320 degrees) at 3 MPH (3 knots; 1.5 m/s)
Visibility: 10 or more miles (16+ km)
Ceiling: at least 12,000 feet AGL
Clouds: sky clear below 12,000 feet AGL
Weather: automated observation with no human augmentation;
there may or may not be significant weather present at this time

METAR text: KPGV 060035Z AUTO 33003KT 10SM CLR 09/01 A3001 RMK AO2
Conditions at: KPGV (PITT GREENVILLE , NC, US) observed 0035 UTC 06 December 2020
Temperature: 9.0°C (48°F)
Dewpoint: 1.0°C (34°F) [RH = 57%]
Pressure (altimeter): 30.01 inches Hg (1016.3 mb)
Winds: from the NNW (330 degrees) at 3 MPH (3 knots; 1.5 m/s)
Visibility: 10 or more miles (16+ km)
Ceiling: at least 12,000 feet AGL
Clouds: sky clear below 12,000 feet AGL
Weather: automated observation with no human augmentation;
there may or may not be significant weather present at this time

METAR text: KPGV 060015Z AUTO 00000KT 10SM SCT060 09/02 A3000 RMK AO2
Conditions at: KPGV (PITT GREENVILLE , NC, US) observed 0015 UTC 06 December 2020
Temperature: 9.0°C (48°F)
Dewpoint: 2.0°C (36°F) [RH = 61%]
Pressure (altimeter): 30.00 inches Hg (1016.0 mb)
Winds: calm
Visibility: 10 or more miles (16+ km)
Ceiling: at least 12,000 feet AGL
Clouds: scattered clouds at 6000 feet AGL
Weather: automated observation with no human augmentation;
there may or may not be significant weather present at this time

Forecast for: KPGV (PITT GREENVILLE , NC, US)
Text: KPGV 052321Z 0600/0624 30003KT P6SM SCT050
Forecast period: 0000 to 0400 UTC 06 December 2020
Forecast type: FROM: standard forecast or significant change
Winds: from the WNW (300 degrees) at 3 MPH (3 knots; 1.5 m/s)
Visibility: 6 or more miles (10+ km)
Ceiling: at least 12,000 feet AGL
Clouds: scattered clouds at 5000 feet AGL
Weather: no significant weather forecast for this period
Text: FM060400 30004KT P6SM SKC AMD LTD TO CLD VIS AND WIND
Forecast period: 0400 UTC 06 December 2020 to 0000 UTC 07 December 2020
Forecast type: FROM: standard forecast or significant change
Winds: from the WNW (300 degrees) at 5 MPH (4 knots; 2.1 m/s)
Visibility: 6 or more miles (10+ km)
Clouds: clear skies
Weather: no significant weather forecast for this period